Time;durP1;ratioP1;P1;durP2;ratioP2;P2;SDS_P1;SDS_P2;PMS_P1;PMS_P2;Temp;Humidity;BMP_temperature;BMP_pressure;BME280_temperature;BME280_humidity;BME280_pressure;Samples;Min_cycle;Max_cycle;Signal;HPM_P1;HPM_P2
2021/05/05 00:01:25;;;;;;;6.93;5.67;;;;;;;;;;5027997;28;20459;-94
2021/05/05 00:03:51;;;;;;;8.87;5.60;;;;;;;;;;5033889;28;20494;-94
2021/05/05 00:06:17;;;;;;;5.80;5.30;;;;;;;;;;5026192;28;20444;-94
2021/05/05 00:08:43;;;;;;;6.57;5.40;;;;;;;;;;5038090;28;20452;-94
2021/05/05 00:11:09;;;;;;;9.80;6.30;;;;;;;;;;5032092;28;20448;-95
2021/05/05 00:13:36;;;;;;;11.23;7.00;;;;;;;;;;5044799;28;20451;-96
2021/05/05 00:16:03;;;;;;;6.43;5.67;;;;;;;;;;5028964;28;20456;-93
2021/05/05 00:18:29;;;;;;;7.70;5.73;;;;;;;;;;5037493;28;20473;-95
2021/05/05 00:20:57;;;;;;;6.50;5.80;;;;;;;;;;5024128;28;20456;-94
2021/05/05 00:23:23;;;;;;;6.07;5.53;;;;;;;;;;5040091;28;20582;-93
2021/05/05 00:25:49;;;;;;;9.13;6.00;;;;;;;;;;5041754;28;20825;-92
2021/05/05 00:28:14;;;;;;;6.77;6.07;;;;;;;;;;5039921;28;20463;-93
2021/05/05 00:30:41;;;;;;;7.43;6.70;;;;;;;;;;5043357;28;20477;-95
2021/05/05 00:33:07;;;;;;;10.93;6.97;;;;;;;;;;5039995;28;20459;-96
2021/05/05 00:35:34;;;;;;;8.50;6.13;;;;;;;;;;5040421;28;20447;-96
2021/05/05 00:38:00;;;;;;;7.40;6.57;;;;;;;;;;5042491;28;20451;-95
2021/05/05 00:40:26;;;;;;;9.67;5.70;;;;;;;;;;5047026;28;20477;-94
2021/05/05 00:42:52;;;;;;;5.87;5.20;;;;;;;;;;5038438;28;20530;-93
2021/05/05 00:45:18;;;;;;;7.20;5.77;;;;;;;;;;5039563;28;20443;-94
2021/05/05 00:47:45;;;;;;;6.87;5.60;;;;;;;;;;5023709;28;20817;-94
2021/05/05 00:50:12;;;;;;;10.47;5.73;;;;;;;;;;5035269;28;20455;-93
2021/05/05 00:52:38;;;;;;;6.07;4.93;;;;;;;;;;5044043;28;20537;-93
2021/05/05 00:55:05;;;;;;;7.23;5.83;;;;;;;;;;5039707;28;20451;-92
2021/05/05 00:57:31;;;;;;;8.00;6.00;;;;;;;;;;5024240;28;20491;-93
2021/05/05 00:59:57;;;;;;;7.87;7.07;;;;;;;;;;5037235;28;20459;-93
2021/05/05 01:02:23;;;;;;;7.47;6.77;;;;;;;;;;5043602;28;20487;-93
2021/05/05 01:04:50;;;;;;;7.97;7.17;;;;;;;;;;5039511;28;20446;-93
2021/05/05 01:07:16;;;;;;;8.50;6.73;;;;;;;;;;5042033;28;20454;-91
2021/05/05 01:09:43;;;;;;;8.10;7.30;;;;;;;;;;5040480;28;20478;-92
2021/05/05 01:12:09;;;;;;;10.00;7.10;;;;;;;;;;5039772;28;20467;-93
2021/05/05 01:14:35;;;;;;;9.53;7.43;;;;;;;;;;5028242;28;20451;-93
2021/05/05 01:17:01;;;;;;;12.87;7.37;;;;;;;;;;5042751;28;20458;-95
2021/05/05 01:19:27;;;;;;;8.03;7.10;;;;;;;;;;5026838;28;20455;-93
2021/05/05 01:21:54;;;;;;;7.93;7.10;;;;;;;;;;5042675;28;20513;-94
2021/05/05 01:24:20;;;;;;;15.00;7.13;;;;;;;;;;5039924;28;23225;-94
2021/05/05 01:26:46;;;;;;;8.10;6.40;;;;;;;;;;5041043;28;20809;-94
2021/05/05 01:29:12;;;;;;;9.00;6.27;;;;;;;;;;5041931;28;20477;-94
2021/05/05 01:31:38;;;;;;;7.97;5.27;;;;;;;;;;5040974;28;20462;-95
2021/05/05 01:34:04;;;;;;;6.30;5.07;;;;;;;;;;5024436;28;20447;-96
2021/05/05 01:36:31;;;;;;;6.53;5.93;;;;;;;;;;5025284;28;20457;-93
2021/05/05 01:38:58;;;;;;;7.83;6.40;;;;;;;;;;5021489;28;20444;-95
2021/05/05 01:41:25;;;;;;;9.90;6.83;;;;;;;;;;5027471;28;20482;-95
2021/05/05 01:43:51;;;;;;;8.83;5.90;;;;;;;;;;5041120;28;20486;-93
2021/05/05 01:46:18;;;;;;;7.37;6.67;;;;;;;;;;5033698;28;20482;-93
2021/05/05 01:48:44;;;;;;;8.20;6.37;;;;;;;;;;5022478;28;20456;-92
2021/05/05 01:51:10;;;;;;;7.30;6.60;;;;;;;;;;5028623;28;20496;-94
2021/05/05 01:53:36;;;;;;;9.60;6.73;;;;;;;;;;5041677;28;20470;-93
2021/05/05 01:56:03;;;;;;;6.90;5.90;;;;;;;;;;5036605;28;20459;-93
2021/05/05 01:58:29;;;;;;;11.50;6.33;;;;;;;;;;5033003;28;20467;-94
2021/05/05 02:00:55;;;;;;;10.00;6.30;;;;;;;;;;5039630;28;20458;-94
2021/05/05 02:03:21;;;;;;;6.93;5.60;;;;;;;;;;5042445;28;20845;-95
2021/05/05 02:05:47;;;;;;;8.40;5.27;;;;;;;;;;5039233;28;20446;-96
2021/05/05 02:08:13;;;;;;;7.20;4.63;;;;;;;;;;5031259;28;20460;-95
2021/05/05 02:10:41;;;;;;;5.83;4.47;;;;;;;;;;5033722;28;20460;-96
2021/05/05 02:13:07;;;;;;;7.50;4.10;;;;;;;;;;5040970;28;20562;-93
2021/05/05 02:15:35;;;;;;;8.87;6.07;;;;;;;;;;5046435;28;20451;-96
2021/05/05 02:18:02;;;;;;;9.37;5.83;;;;;;;;;;5030267;28;20467;-94
2021/05/05 02:20:30;;;;;;;10.37;6.97;;;;;;;;;;5043551;28;20451;-96
2021/05/05 02:22:56;;;;;;;10.33;7.17;;;;;;;;;;5040858;28;20491;-96
2021/05/05 02:25:27;;;;;;;11.23;7.30;;;;;;;;;;5043349;28;20443;-92
2021/05/05 02:27:53;;;;;;;8.20;7.47;;;;;;;;;;5033020;28;20463;-92
2021/05/05 02:30:21;;;;;;;9.07;7.20;;;;;;;;;;5041575;28;20447;-92
2021/05/05 02:32:48;;;;;;;11.93;7.40;;;;;;;;;;5038611;28;20459;-93
2021/05/05 02:35:15;;;;;;;10.83;7.40;;;;;;;;;;5039199;28;20458;-94
2021/05/05 02:37:43;;;;;;;8.63;7.23;;;;;;;;;;5036668;28;20946;-95
2021/05/05 02:40:09;;;;;;;7.83;7.03;;;;;;;;;;5042364;28;20443;-93
2021/05/05 02:42:52;;;;;;;6.90;6.27;;;;;;;;;;5041841;28;20494;-96
2021/05/05 02:45:21;;;;;;;7.63;6.77;;;;;;;;;;5041199;22;20491;-96
2021/05/05 02:47:48;;;;;;;14.27;6.37;;;;;;;;;;5021098;28;20459;-94
2021/05/05 02:50:14;;;;;;;5.63;5.13;;;;;;;;;;5024846;28;20456;-95
2021/05/05 02:55:21;;;;;;;8.10;5.57;;;;;;;;;;5043617;28;20450;-96
2021/05/05 02:57:55;;;;;;;6.00;5.40;;;;;;;;;;5051058;28;20431;-96
2021/05/05 03:00:27;;;;;;;8.90;5.30;;;;;;;;;;5053166;22;20487;-96
2021/05/05 03:02:53;;;;;;;9.00;5.70;;;;;;;;;;5032543;28;20514;-96
2021/05/05 03:11:08;;;;;;;7.17;6.00;;;;;;;;;;5039796;28;20450;-96
2021/05/05 03:14:00;;;;;;;8.47;6.30;;;;;;;;;;5069856;28;20437;-96
2021/05/05 03:16:45;;;;;;;8.13;6.60;;;;;;;;;;5051810;28;20479;-96
2021/05/05 03:19:13;;;;;;;8.87;6.10;;;;;;;;;;5047827;22;20446;-97
2021/05/05 03:39:29;;;;;;;8.00;7.30;;;;;;;;;;4999694;28;20421;-96
2021/05/05 03:41:55;;;;;;;7.90;7.00;;;;;;;;;;4992401;23;20497;-95
2021/05/05 03:44:21;;;;;;;7.63;7.03;;;;;;;;;;4986679;28;20489;-92
2021/05/05 03:46:47;;;;;;;8.30;6.83;;;;;;;;;;4983728;28;20834;-92
2021/05/05 03:49:13;;;;;;;7.70;7.00;;;;;;;;;;4984633;28;20457;-95
2021/05/05 03:51:39;;;;;;;7.03;6.10;;;;;;;;;;4984355;28;20528;-96
2021/05/05 03:54:08;;;;;;;7.00;6.30;;;;;;;;;;4981136;28;20445;-96
2021/05/05 04:45:09;;;;;;;9.17;6.97;;;;;;;;;;5100916;23;20489;-96
2021/05/05 04:50:13;;;;;;;7.60;6.30;;;;;;;;;;5209369;23;20476;-96
2021/05/05 04:52:39;;;;;;;7.73;6.40;;;;;;;;;;5016678;28;20456;-96
2021/05/05 04:55:06;;;;;;;8.03;6.10;;;;;;;;;;5010557;28;20460;-96
2021/05/05 04:58:03;;;;;;;7.40;6.80;;;;;;;;;;5002251;28;20460;-96
2021/05/05 05:00:35;;;;;;;8.70;6.80;;;;;;;;;;5019180;28;20417;-96
2021/05/05 05:05:57;;;;;;;7.20;6.50;;;;;;;;;;4995270;23;20489;-96
2021/05/05 05:13:49;;;;;;;7.57;6.77;;;;;;;;;;4971663;28;20498;-95
2021/05/05 05:16:16;;;;;;;8.50;7.10;;;;;;;;;;4963292;28;20462;-93
2021/05/05 05:18:44;;;;;;;7.43;6.73;;;;;;;;;;4966217;29;20943;-93
2021/05/05 05:21:10;;;;;;;7.27;6.60;;;;;;;;;;4962631;28;20966;-94
2021/05/05 05:23:36;;;;;;;9.10;7.03;;;;;;;;;;4963719;29;20498;-93
2021/05/05 05:26:02;;;;;;;7.10;6.37;;;;;;;;;;4961829;28;20463;-92
2021/05/05 05:28:29;;;;;;;8.80;7.00;;;;;;;;;;4959444;28;20454;-94
2021/05/05 05:30:55;;;;;;;7.07;6.30;;;;;;;;;;4965807;29;20442;-96
2021/05/05 05:33:23;;;;;;;7.27;6.57;;;;;;;;;;4962163;29;20982;-96
2021/05/05 05:35:49;;;;;;;7.27;6.60;;;;;;;;;;4965933;28;20470;-95
2021/05/05 05:40:40;;;;;;;7.20;6.50;;;;;;;;;;5387202;23;20481;-96
2021/05/05 05:43:16;;;;;;;6.90;6.30;;;;;;;;;;4989875;28;20462;-96
2021/05/05 05:45:43;;;;;;;6.77;6.17;;;;;;;;;;4989918;23;20525;-96
2021/05/05 05:48:11;;;;;;;7.00;6.07;;;;;;;;;;4994604;28;20987;-96
2021/05/05 05:50:38;;;;;;;10.77;6.17;;;;;;;;;;4977355;28;20478;-96
2021/05/05 05:53:04;;;;;;;6.97;6.30;;;;;;;;;;4977565;28;20838;-94
2021/05/05 05:55:32;;;;;;;9.00;6.47;;;;;;;;;;4975446;28;20451;-95
2021/05/05 05:57:58;;;;;;;6.60;6.07;;;;;;;;;;4980226;28;20481;-94
2021/05/05 06:00:24;;;;;;;6.17;5.57;;;;;;;;;;4980699;28;20461;-93
2021/05/05 06:02:50;;;;;;;6.33;5.70;;;;;;;;;;4976615;28;20524;-95
2021/05/05 06:05:16;;;;;;;7.63;5.90;;;;;;;;;;4979756;28;20442;-95
2021/05/05 06:07:43;;;;;;;6.20;5.60;;;;;;;;;;4974648;28;20442;-94
2021/05/05 06:10:11;;;;;;;6.43;5.53;;;;;;;;;;4977128;28;20451;-94
2021/05/05 06:12:37;;;;;;;5.70;5.20;;;;;;;;;;4970481;28;20461;-93
2021/05/05 06:15:04;;;;;;;7.20;5.47;;;;;;;;;;4973101;28;20469;-94
2021/05/05 06:17:31;;;;;;;6.30;5.70;;;;;;;;;;4976408;28;20463;-94
2021/05/05 06:19:57;;;;;;;7.70;5.53;;;;;;;;;;4990352;28;20461;-96
2021/05/05 06:22:23;;;;;;;8.50;7.23;;;;;;;;;;4988784;28;20467;-96
2021/05/05 06:24:50;;;;;;;6.37;5.77;;;;;;;;;;4976866;28;20487;-96
2021/05/05 06:27:20;;;;;;;6.03;4.80;;;;;;;;;;4980766;28;20554;-95
2021/05/05 06:29:47;;;;;;;6.00;5.50;;;;;;;;;;4974401;28;20458;-92
2021/05/05 06:32:13;;;;;;;5.43;4.93;;;;;;;;;;4976507;28;20450;-92
2021/05/05 06:34:39;;;;;;;6.70;5.20;;;;;;;;;;4973550;28;20467;-94
2021/05/05 06:37:05;;;;;;;7.30;5.53;;;;;;;;;;4979682;28;20471;-94
2021/05/05 06:39:31;;;;;;;5.70;5.30;;;;;;;;;;4981101;28;20460;-95
2021/05/05 06:41:59;;;;;;;5.50;5.10;;;;;;;;;;4980090;28;20452;-96
2021/05/05 06:44:25;;;;;;;8.53;5.67;;;;;;;;;;4979832;28;20503;-94
2021/05/05 06:46:54;;;;;;;9.60;5.30;;;;;;;;;;4992500;28;20482;-93
2021/05/05 06:49:21;;;;;;;4.80;4.40;;;;;;;;;;5000023;28;20466;-94
2021/05/05 06:51:47;;;;;;;6.63;5.70;;;;;;;;;;4995091;28;20459;-93
2021/05/05 06:54:13;;;;;;;7.70;4.97;;;;;;;;;;4997495;28;20448;-94
2021/05/05 06:56:39;;;;;;;5.90;4.80;;;;;;;;;;4992768;28;20458;-93
2021/05/05 06:59:06;;;;;;;4.90;4.50;;;;;;;;;;4995608;28;20449;-92
2021/05/05 07:01:32;;;;;;;6.73;5.70;;;;;;;;;;4993097;28;20479;-94
2021/05/05 07:03:58;;;;;;;5.43;4.80;;;;;;;;;;4996961;28;20490;-94
2021/05/05 07:06:24;;;;;;;8.67;4.97;;;;;;;;;;4998730;28;20522;-94
2021/05/05 07:08:50;;;;;;;5.57;5.07;;;;;;;;;;5001248;28;20453;-93
2021/05/05 07:11:16;;;;;;;6.40;4.93;;;;;;;;;;4989846;28;21007;-94
2021/05/05 07:13:42;;;;;;;5.40;4.90;;;;;;;;;;5004982;28;20468;-95
2021/05/05 07:16:20;;;;;;;5.00;4.50;;;;;;;;;;5002567;28;20476;-95
2021/05/05 07:18:47;;;;;;;5.13;4.67;;;;;;;;;;5003210;28;20460;-95
2021/05/05 07:21:13;;;;;;;10.77;4.97;;;;;;;;;;4995082;28;21255;-95
2021/05/05 07:23:39;;;;;;;5.03;4.57;;;;;;;;;;4988010;28;20492;-94
2021/05/05 07:26:05;;;;;;;6.43;4.83;;;;;;;;;;4997962;28;20453;-94
2021/05/05 07:28:31;;;;;;;6.30;4.20;;;;;;;;;;4996957;28;20471;-94
2021/05/05 07:30:57;;;;;;;6.13;5.03;;;;;;;;;;5000069;28;20461;-94
2021/05/05 07:33:25;;;;;;;5.80;5.30;;;;;;;;;;4999566;28;20468;-95
2021/05/05 07:35:54;;;;;;;5.43;4.47;;;;;;;;;;5001889;28;20544;-93
2021/05/05 07:46:43;;;;;;;6.63;4.60;;;;;;;;;;4999461;28;20488;-96
2021/05/05 07:49:12;;;;;;;5.30;4.20;;;;;;;;;;4996919;28;20448;-95
2021/05/05 07:51:40;;;;;;;4.47;4.03;;;;;;;;;;5008414;28;20447;-96
2021/05/05 07:54:10;;;;;;;5.50;3.70;;;;;;;;;;5008237;28;20464;-96
2021/05/05 07:56:36;;;;;;;4.57;4.13;;;;;;;;;;5002985;28;20466;-94
2021/05/05 07:59:02;;;;;;;7.20;5.30;;;;;;;;;;5007839;28;20463;-94
2021/05/05 08:01:29;;;;;;;5.27;4.13;;;;;;;;;;5007997;28;20493;-93
2021/05/05 08:03:55;;;;;;;5.73;4.03;;;;;;;;;;5004332;28;20492;-94
2021/05/05 08:06:23;;;;;;;3.80;3.50;;;;;;;;;;5007000;28;20449;-94
2021/05/05 08:08:49;;;;;;;6.33;4.10;;;;;;;;;;5004231;28;20465;-94
2021/05/05 08:11:15;;;;;;;4.70;4.00;;;;;;;;;;5006796;28;20453;-93
2021/05/05 08:13:46;;;;;;;5.90;4.00;;;;;;;;;;5010372;28;20457;-94
2021/05/05 08:16:12;;;;;;;4.47;3.50;;;;;;;;;;5012458;28;20444;-94
2021/05/05 08:18:40;;;;;;;4.00;3.60;;;;;;;;;;5010079;28;20456;-93
2021/05/05 08:21:08;;;;;;;7.23;3.90;;;;;;;;;;5007913;28;20456;-93
2021/05/05 08:23:35;;;;;;;4.00;3.70;;;;;;;;;;5003755;28;20520;-93
2021/05/05 08:26:02;;;;;;;6.03;3.50;;;;;;;;;;5006621;28;20818;-95
2021/05/05 08:28:28;;;;;;;4.80;3.57;;;;;;;;;;5004361;28;20451;-93
2021/05/05 08:30:54;;;;;;;5.60;3.70;;;;;;;;;;5005365;28;20457;-95
2021/05/05 08:33:31;;;;;;;5.57;4.20;;;;;;;;;;5056992;23;20440;-96
2021/05/05 08:35:57;;;;;;;4.30;4.00;;;;;;;;;;4990442;28;20477;-96
2021/05/05 08:38:58;;;;;;;3.77;3.40;;;;;;;;;;4991627;28;20458;-96
2021/05/05 08:41:44;;;;;;;4.40;3.40;;;;;;;;;;5002859;28;20473;-96
2021/05/05 08:44:20;;;;;;;3.80;3.40;;;;;;;;;;4994512;28;20533;-96
2021/05/05 08:46:46;;;;;;;5.13;3.30;;;;;;;;;;5007012;28;20445;-96
2021/05/05 08:49:17;;;;;;;3.53;3.23;;;;;;;;;;5012000;28;20511;-96
2021/05/05 08:51:47;;;;;;;4.40;3.10;;;;;;;;;;5020679;23;20486;-96
2021/05/05 08:54:16;;;;;;;4.67;3.10;;;;;;;;;;5002037;28;20434;-96
2021/05/05 08:56:45;;;;;;;3.90;3.00;;;;;;;;;;5005134;28;20453;-96
2021/05/05 08:59:14;;;;;;;4.40;3.10;;;;;;;;;;5001190;28;20450;-96
2021/05/05 09:01:49;;;;;;;3.40;2.53;;;;;;;;;;4991900;28;20989;-96
2021/05/05 09:04:15;;;;;;;4.77;3.03;;;;;;;;;;5004703;28;20520;-94
2021/05/05 09:06:59;;;;;;;3.13;2.60;;;;;;;;;;4996269;28;21246;-96
2021/05/05 09:09:38;;;;;;;3.90;3.00;;;;;;;;;;5003846;28;20429;-96
2021/05/05 09:12:15;;;;;;;3.63;3.07;;;;;;;;;;5007245;28;20501;-96
2021/05/05 09:14:56;;;;;;;3.70;3.40;;;;;;;;;;4995103;28;20468;-96
2021/05/05 09:20:18;;;;;;;3.20;2.90;;;;;;;;;;4997739;28;20456;-96
2021/05/05 09:22:49;;;;;;;5.30;3.17;;;;;;;;;;5005323;23;20504;-96
2021/05/05 09:25:33;;;;;;;5.47;2.60;;;;;;;;;;5007767;28;20440;-96
2021/05/05 09:28:13;;;;;;;3.87;2.70;;;;;;;;;;4996018;28;20496;-94
2021/05/05 09:30:41;;;;;;;2.73;2.40;;;;;;;;;;4996059;28;20439;-96
2021/05/05 09:33:09;;;;;;;6.63;2.90;;;;;;;;;;4982897;28;20458;-96
2021/05/05 09:35:36;;;;;;;9.23;2.87;;;;;;;;;;5016972;23;20479;-96
2021/05/05 09:38:03;;;;;;;6.10;3.20;;;;;;;;;;5007130;28;20453;-95
2021/05/05 09:40:30;;;;;;;3.50;3.20;;;;;;;;;;5006126;28;20445;-95
2021/05/05 09:42:56;;;;;;;3.43;2.73;;;;;;;;;;5004468;28;20484;-96
2021/05/05 09:45:31;;;;;;;7.10;3.20;;;;;;;;;;5001972;28;20453;-96
2021/05/05 09:47:59;;;;;;;6.60;2.50;;;;;;;;;;5001220;28;20487;-94
2021/05/05 09:50:46;;;;;;;4.30;3.00;;;;;;;;;;5008404;28;20477;-96
2021/05/05 09:53:26;;;;;;;5.07;2.80;;;;;;;;;;5065700;22;20473;-95
2021/05/05 09:56:12;;;;;;;3.70;3.40;;;;;;;;;;5032929;23;20491;-96
2021/05/05 09:58:48;;;;;;;3.80;3.10;;;;;;;;;;5007681;28;20439;-94
2021/05/05 10:01:20;;;;;;;3.57;2.90;;;;;;;;;;5009627;28;20447;-96
2021/05/05 10:03:53;;;;;;;3.47;3.07;;;;;;;;;;5018700;23;20491;-96
2021/05/05 10:09:13;;;;;;;5.07;2.93;;;;;;;;;;5006456;28;20471;-95
2021/05/05 10:12:05;;;;;;;4.40;2.70;;;;;;;;;;5006122;28;20532;-96
2021/05/05 10:14:32;;;;;;;4.97;2.80;;;;;;;;;;5016623;23;20497;-96
2021/05/05 10:17:19;;;;;;;2.80;2.60;;;;;;;;;;4991452;28;20461;-96
2021/05/05 10:19:49;;;;;;;6.53;3.20;;;;;;;;;;4974518;28;20460;-96
2021/05/05 10:22:17;;;;;;;4.87;2.97;;;;;;;;;;4983901;28;20460;-93
2021/05/05 10:24:50;;;;;;;7.10;3.73;;;;;;;;;;5003733;28;20496;-96
2021/05/05 10:27:18;;;;;;;2.67;2.43;;;;;;;;;;5004191;28;20464;-96
2021/05/05 10:29:45;;;;;;;3.17;2.50;;;;;;;;;;4998988;28;20465;-94
2021/05/05 10:32:13;;;;;;;4.80;2.60;;;;;;;;;;5008001;28;20457;-95
2021/05/05 10:34:42;;;;;;;4.47;2.77;;;;;;;;;;5021611;23;20509;-96
2021/05/05 10:37:20;;;;;;;3.97;2.80;;;;;;;;;;5049019;28;20443;-96
2021/05/05 10:39:47;;;;;;;3.50;3.20;;;;;;;;;;5047987;28;20441;-96
2021/05/05 10:42:15;;;;;;;2.90;2.60;;;;;;;;;;5047528;28;20437;-96
2021/05/05 10:44:43;;;;;;;3.60;2.70;;;;;;;;;;5046479;28;20489;-95
2021/05/05 10:47:12;;;;;;;4.03;2.67;;;;;;;;;;5048770;28;20453;-96
2021/05/05 10:50:04;;;;;;;3.00;2.80;;;;;;;;;;5050188;28;20473;-94
2021/05/05 10:52:53;;;;;;;2.60;2.40;;;;;;;;;;5049987;28;20459;-96
2021/05/05 10:55:35;;;;;;;2.40;2.20;;;;;;;;;;5001465;28;20442;-95
2021/05/05 10:58:06;;;;;;;3.30;2.50;;;;;;;;;;5051550;28;20469;-96
2021/05/05 11:00:57;;;;;;;9.10;2.83;;;;;;;;;;5048708;28;20458;-95
2021/05/05 11:03:43;;;;;;;2.67;2.50;;;;;;;;;;5054988;28;20521;-94
2021/05/05 11:06:30;;;;;;;3.47;2.47;;;;;;;;;;5027909;28;20451;-96
2021/05/05 11:09:24;;;;;;;5.63;2.10;;;;;;;;;;5070969;23;20491;-95
2021/05/05 11:11:54;;;;;;;2.87;2.67;;;;;;;;;;5004351;28;20433;-96
2021/05/05 11:14:36;;;;;;;5.07;3.00;;;;;;;;;;5007185;28;20436;-96
2021/05/05 11:17:05;;;;;;;3.10;2.80;;;;;;;;;;5004609;28;20583;-96
2021/05/05 11:19:51;;;;;;;3.10;2.60;;;;;;;;;;5106016;23;20482;-96
2021/05/05 11:22:33;;;;;;;4.03;2.70;;;;;;;;;;4997741;28;20457;-96
2021/05/05 11:25:17;;;;;;;7.00;2.97;;;;;;;;;;5010079;23;20504;-96
2021/05/05 11:27:48;;;;;;;2.87;2.60;;;;;;;;;;5006792;28;20459;-96
2021/05/05 11:30:30;;;;;;;5.57;3.10;;;;;;;;;;5012294;28;20451;-95
2021/05/05 11:33:04;;;;;;;4.80;3.00;;;;;;;;;;4999426;28;20458;-96
2021/05/05 11:35:31;;;;;;;7.37;3.03;;;;;;;;;;5015051;28;20420;-96
2021/05/05 11:38:26;;;;;;;3.10;2.90;;;;;;;;;;5004145;28;20521;-96
2021/05/05 11:40:55;;;;;;;3.43;2.77;;;;;;;;;;4990148;28;20476;-96
2021/05/05 11:43:22;;;;;;;4.97;3.03;;;;;;;;;;5097663;23;20998;-96
2021/05/05 11:45:54;;;;;;;3.33;3.03;;;;;;;;;;5049364;28;20470;-95
2021/05/05 11:51:06;;;;;;;4.30;3.10;;;;;;;;;;5002190;28;20509;-96
2021/05/05 11:53:37;;;;;;;3.73;2.73;;;;;;;;;;5007992;28;20463;-95
2021/05/05 11:56:14;;;;;;;5.23;2.90;;;;;;;;;;5007206;28;20837;-96
2021/05/05 11:58:43;;;;;;;3.87;3.13;;;;;;;;;;4983700;28;20482;-93
2021/05/05 12:01:15;;;;;;;3.07;2.57;;;;;;;;;;5000929;28;20450;-94
2021/05/05 12:04:18;;;;;;;4.60;3.10;;;;;;;;;;4999033;28;20529;-94
2021/05/05 12:06:52;;;;;;;3.63;2.83;;;;;;;;;;5014598;28;20479;-96
2021/05/05 12:09:26;;;;;;;3.30;2.70;;;;;;;;;;4970409;28;20452;-95
2021/05/05 12:12:10;;;;;;;3.30;2.90;;;;;;;;;;5009496;28;20497;-96
2021/05/05 12:14:38;;;;;;;6.50;3.13;;;;;;;;;;5000755;28;20462;-96
2021/05/05 12:17:22;;;;;;;2.73;2.53;;;;;;;;;;5006833;28;20507;-96
2021/05/05 12:19:53;;;;;;;4.50;2.80;;;;;;;;;;5051497;23;20511;-93
2021/05/05 12:22:20;;;;;;;2.87;2.67;;;;;;;;;;5008214;28;21152;-96
2021/05/05 12:25:05;;;;;;;4.57;2.97;;;;;;;;;;5009587;28;20499;-96
2021/05/05 12:27:48;;;;;;;4.47;3.20;;;;;;;;;;5009592;28;20455;-96
2021/05/05 12:30:14;;;;;;;3.73;2.87;;;;;;;;;;5009723;28;20450;-96
2021/05/05 12:32:50;;;;;;;5.20;3.20;;;;;;;;;;5008635;28;20457;-93
2021/05/05 12:35:21;;;;;;;6.10;3.40;;;;;;;;;;5007406;28;20553;-96
2021/05/05 12:37:51;;;;;;;4.27;3.03;;;;;;;;;;5009938;28;20452;-94
2021/05/05 12:40:22;;;;;;;6.83;3.00;;;;;;;;;;5016221;28;20463;-96
2021/05/05 12:42:50;;;;;;;3.97;2.83;;;;;;;;;;5012359;28;20484;-96
2021/05/05 12:45:17;;;;;;;3.83;2.97;;;;;;;;;;5007731;28;20453;-95
2021/05/05 12:47:49;;;;;;;3.83;2.77;;;;;;;;;;5008114;28;20452;-96
2021/05/05 12:50:18;;;;;;;7.73;3.40;;;;;;;;;;5009054;28;20473;-96
2021/05/05 12:52:56;;;;;;;4.83;2.93;;;;;;;;;;5017846;22;20529;-95
2021/05/05 12:55:32;;;;;;;4.10;2.77;;;;;;;;;;4993704;28;20429;-96
2021/05/05 12:58:34;;;;;;;2.90;2.70;;;;;;;;;;5016198;23;20506;-96
2021/05/05 13:01:10;;;;;;;3.97;3.03;;;;;;;;;;5001414;28;20461;-96
2021/05/05 13:03:39;;;;;;;4.50;3.23;;;;;;;;;;4995748;28;20483;-96
2021/05/05 13:08:48;;;;;;;7.60;3.20;;;;;;;;;;5013904;23;20487;-96
2021/05/05 13:11:25;;;;;;;3.90;2.70;;;;;;;;;;4996478;23;20499;-96
2021/05/05 13:14:02;;;;;;;5.13;2.90;;;;;;;;;;4989330;28;20547;-95
2021/05/05 13:16:49;;;;;;;5.60;2.97;;;;;;;;;;4984563;28;20425;-96
2021/05/05 13:30:58;;;;;;;7.93;3.13;;;;;;;;;;5094674;23;20506;-95
2021/05/05 13:33:24;;;;;;;3.33;2.80;;;;;;;;;;5030536;28;20455;-96
2021/05/05 13:35:53;;;;;;;3.63;3.07;;;;;;;;;;5020718;23;20511;-96
2021/05/05 13:38:23;;;;;;;5.70;3.50;;;;;;;;;;4994957;28;20447;-96
2021/05/05 13:43:26;;;;;;;3.07;2.87;;;;;;;;;;5297695;23;20479;-96
2021/05/05 13:46:05;;;;;;;6.13;3.03;;;;;;;;;;4993733;28;20443;-94
2021/05/05 13:51:15;;;;;;;4.50;3.00;;;;;;;;;;4977924;28;20452;-96
2021/05/05 13:53:47;;;;;;;3.63;2.77;;;;;;;;;;4989675;28;20455;-96
2021/05/05 13:56:14;;;;;;;4.03;3.20;;;;;;;;;;4992276;28;20530;-96
2021/05/05 13:58:41;;;;;;;3.33;2.70;;;;;;;;;;5000158;23;20504;-96
2021/05/05 14:01:08;;;;;;;3.43;2.70;;;;;;;;;;4990553;28;20436;-95
2021/05/05 14:08:45;;;;;;;8.37;3.13;;;;;;;;;;4961930;28;20501;-96
2021/05/05 14:11:17;;;;;;;3.40;2.77;;;;;;;;;;5059745;23;20490;-96
2021/05/05 14:13:43;;;;;;;6.70;3.93;;;;;;;;;;4971256;28;20488;-96
2021/05/05 14:16:11;;;;;;;3.53;2.83;;;;;;;;;;5009019;23;20527;-96
2021/05/05 14:18:48;;;;;;;3.73;3.33;;;;;;;;;;5012836;28;20467;-95
2021/05/05 14:21:19;;;;;;;3.37;3.07;;;;;;;;;;5033433;28;20421;-96
2021/05/05 14:24:02;;;;;;;3.47;2.67;;;;;;;;;;4996611;28;20486;-96
2021/05/05 14:26:28;;;;;;;5.10;3.27;;;;;;;;;;5012134;28;20451;-96
2021/05/05 14:28:54;;;;;;;6.47;3.43;;;;;;;;;;4996827;28;20431;-96
2021/05/05 14:31:25;;;;;;;4.17;2.90;;;;;;;;;;5005147;28;20462;-94
2021/05/05 14:33:51;;;;;;;4.57;3.40;;;;;;;;;;5512454;22;20494;-96
2021/05/05 14:36:18;;;;;;;7.73;3.50;;;;;;;;;;5042236;23;20503;-95
2021/05/05 14:38:49;;;;;;;4.80;2.93;;;;;;;;;;4973070;28;20459;-95
2021/05/05 14:43:56;;;;;;;3.90;2.67;;;;;;;;;;5020369;23;20529;-96
2021/05/05 14:49:17;;;;;;;5.43;3.13;;;;;;;;;;4993009;28;20424;-95
2021/05/05 14:51:45;;;;;;;7.37;3.20;;;;;;;;;;4994009;28;20942;-95
2021/05/05 14:54:15;;;;;;;3.00;2.70;;;;;;;;;;4993006;28;20454;-96
2021/05/05 14:56:51;;;;;;;5.13;2.80;;;;;;;;;;4994004;28;20442;-95
2021/05/05 14:59:20;;;;;;;4.00;2.80;;;;;;;;;;5038799;23;20504;-96
2021/05/05 15:01:47;;;;;;;3.23;2.93;;;;;;;;;;4995622;28;20456;-96
2021/05/05 15:04:14;;;;;;;8.20;3.40;;;;;;;;;;4998684;28;20492;-96
2021/05/05 15:06:43;;;;;;;5.00;3.20;;;;;;;;;;4993488;23;20510;-96
2021/05/05 15:09:21;;;;;;;3.43;3.07;;;;;;;;;;4978419;29;20465;-96
2021/05/05 15:14:51;;;;;;;5.33;2.73;;;;;;;;;;4964022;23;20504;-96
2021/05/05 15:34:20;;;;;;;3.53;2.60;;;;;;;;;;4978933;29;20660;-96
2021/05/05 15:39:24;;;;;;;5.10;3.07;;;;;;;;;;4955349;29;20462;-96
2021/05/05 15:41:52;;;;;;;4.20;2.97;;;;;;;;;;4984714;23;20869;-95
2021/05/05 15:47:15;;;;;;;3.07;2.77;;;;;;;;;;4961874;28;20466;-94
2021/05/05 15:49:45;;;;;;;3.30;2.97;;;;;;;;;;4971956;29;20422;-96
2021/05/05 15:52:11;;;;;;;6.40;3.20;;;;;;;;;;4975285;29;20821;-96
2021/05/05 15:54:37;;;;;;;5.90;2.67;;;;;;;;;;4968607;23;20525;-96
2021/05/05 15:57:06;;;;;;;3.80;2.50;;;;;;;;;;4976677;28;20473;-95
2021/05/05 15:59:41;;;;;;;4.93;3.00;;;;;;;;;;4987569;28;20454;-95
2021/05/05 16:09:17;;;;;;;3.83;2.53;;;;;;;;;;4949110;28;20537;-96
2021/05/05 16:13:40;;;;;;;6.43;3.20;;;;;;;;;;4982025;28;20457;-96
2021/05/05 16:16:12;;;;;;;4.70;2.67;;;;;;;;;;4993739;28;20457;-95
2021/05/05 16:18:53;;;;;;;10.50;3.33;;;;;;;;;;4980173;28;20435;-96
2021/05/05 16:24:45;;;;;;;3.87;2.70;;;;;;;;;;4973091;28;20490;-96
2021/05/05 16:27:23;;;;;;;3.53;2.83;;;;;;;;;;5033536;23;20567;-96
2021/05/05 16:30:00;;;;;;;6.07;3.07;;;;;;;;;;5026218;28;20486;-94
2021/05/05 16:43:43;;;;;;;4.80;2.87;;;;;;;;;;4968010;28;20511;-96
2021/05/05 16:49:10;;;;;;;3.50;3.00;;;;;;;;;;4961742;29;20464;-96
2021/05/05 16:51:51;;;;;;;9.03;2.90;;;;;;;;;;4967172;29;20450;-95
2021/05/05 16:54:26;;;;;;;4.70;2.93;;;;;;;;;;4946739;29;20466;-96
2021/05/05 16:57:00;;;;;;;11.17;3.50;;;;;;;;;;4961558;29;20847;-96
2021/05/05 17:05:25;;;;;;;10.47;2.90;;;;;;;;;;4951721;29;20538;-95
2021/05/05 17:08:01;;;;;;;6.43;2.93;;;;;;;;;;4964475;29;20458;-96
2021/05/05 17:10:29;;;;;;;4.80;2.80;;;;;;;;;;4957974;29;20451;-95
2021/05/05 17:13:05;;;;;;;4.93;2.90;;;;;;;;;;4966452;29;20446;-96
2021/05/05 17:15:34;;;;;;;4.93;2.70;;;;;;;;;;4960177;29;20470;-93
2021/05/05 17:18:07;;;;;;;5.93;3.20;;;;;;;;;;4960373;29;20519;-94
2021/05/05 17:20:42;;;;;;;5.63;2.93;;;;;;;;;;4967377;28;20455;-94
2021/05/05 17:23:13;;;;;;;5.73;3.07;;;;;;;;;;4961931;29;20453;-96
2021/05/05 17:26:11;;;;;;;4.80;2.83;;;;;;;;;;4955211;29;20470;-95
2021/05/05 17:28:56;;;;;;;5.80;2.70;;;;;;;;;;4952695;29;20439;-95
2021/05/05 17:45:16;;;;;;;3.90;2.30;;;;;;;;;;4987826;28;20487;-95
2021/05/05 18:10:14;;;;;;;6.23;3.00;;;;;;;;;;4966021;28;20937;-94
2021/05/05 18:18:14;;;;;;;4.63;3.03;;;;;;;;;;4983837;28;20444;-96
2021/05/05 18:20:43;;;;;;;3.00;2.70;;;;;;;;;;4966177;28;20923;-95
2021/05/05 18:23:11;;;;;;;3.87;2.97;;;;;;;;;;4968563;28;21240;-95
2021/05/05 18:28:35;;;;;;;4.47;3.20;;;;;;;;;;4950204;28;20568;-91
2021/05/05 18:31:01;;;;;;;9.00;3.43;;;;;;;;;;4962425;28;20467;-95
2021/05/05 18:33:28;;;;;;;8.27;3.17;;;;;;;;;;4965353;28;20460;-95
2021/05/05 18:35:54;;;;;;;8.67;3.40;;;;;;;;;;4970968;28;20463;-96
2021/05/05 18:38:20;;;;;;;5.90;3.50;;;;;;;;;;4968958;28;20460;-95
2021/05/05 18:41:00;;;;;;;5.63;3.43;;;;;;;;;;4964094;28;20442;-95
2021/05/05 18:43:35;;;;;;;6.57;3.00;;;;;;;;;;4972401;28;20449;-95
2021/05/05 19:08:30;;;;;;;7.03;3.33;;;;;;;;;;4967014;28;20841;-95
2021/05/05 20:21:05;;;;;;;6.60;3.10;;;;;;;;;;4985803;28;20491;-96
2021/05/05 21:08:26;;;;;;;3.83;3.30;;;;;;;;;;5016846;28;20436;-96
2021/05/05 21:11:09;;;;;;;6.13;3.73;;;;;;;;;;4995398;28;20547;-95
2021/05/05 21:36:41;;;;;;;6.83;3.40;;;;;;;;;;4953454;29;20518;-96
2021/05/05 21:39:46;;;;;;;6.47;3.23;;;;;;;;;;4995125;28;20492;-96
2021/05/05 23:16:16;;;;;;;9.80;8.20;;;;;;;;;;4989923;28;20456;-94